createdAt,value
2019-06-27T00:00:04.669Z,988.4
2019-06-27T00:01:06.004Z,988.5
2019-06-27T00:02:07.314Z,988.4
2019-06-27T00:03:08.654Z,988.4
2019-06-27T00:04:10.020Z,988.4
2019-06-27T00:05:11.332Z,988.5
2019-06-27T00:06:12.738Z,988.5
2019-06-27T00:07:14.067Z,988.4
2019-06-27T00:08:15.930Z,988.5
2019-06-27T00:09:17.230Z,988.5
2019-06-27T00:10:18.578Z,988.3
2019-06-27T00:11:19.861Z,988.1
2019-06-27T00:12:21.474Z,988.5
2019-06-27T00:13:22.906Z,988.4
2019-06-27T00:14:24.464Z,988.5
2019-06-27T00:15:25.764Z,988.4
2019-06-27T00:16:27.076Z,988.4
2019-06-27T00:17:28.365Z,988.4
2019-06-27T00:18:29.988Z,988.4
2019-06-27T00:19:31.268Z,988.3
2019-06-27T00:20:33.039Z,988.4
2019-06-27T00:21:34.320Z,988.1
2019-06-27T00:22:35.606Z,988.3
2019-06-27T00:23:36.938Z,988.3
2019-06-27T00:24:38.238Z,988.4
2019-06-27T00:25:39.528Z,988.4
2019-06-27T00:26:57.607Z,988.4
2019-06-27T00:27:59.174Z,988.4
2019-06-27T00:29:02.510Z,988.3
2019-06-27T00:30:04.388Z,988.4
2019-06-27T00:31:06.335Z,988.3
2019-06-27T00:32:07.651Z,988.3
2019-06-27T00:33:08.960Z,988.4
2019-06-27T00:34:10.381Z,988.4
2019-06-27T00:35:11.698Z,988.6
2019-06-27T00:36:12.986Z,988.4
2019-06-27T00:37:14.304Z,988.5
2019-06-27T00:38:15.619Z,988.5
2019-06-27T00:39:16.938Z,988.5
2019-06-27T00:40:18.234Z,988.5
2019-06-27T00:41:19.535Z,988.4
2019-06-27T00:42:20.852Z,988.6
2019-06-27T00:43:22.190Z,988.4
2019-06-27T00:44:23.544Z,988.6
2019-06-27T00:45:24.836Z,988.4
2019-06-27T00:46:26.150Z,988.5
2019-06-27T00:47:27.548Z,988.5
2019-06-27T00:48:28.961Z,988.6
2019-06-27T00:49:31.169Z,988.4
2019-06-27T00:50:32.450Z,988.5
2019-06-27T00:51:34.049Z,988.6
2019-06-27T00:52:35.534Z,988.6
2019-06-27T00:53:37.776Z,988.5
2019-06-27T00:54:39.291Z,988.6
2019-06-27T00:55:40.628Z,988.4
2019-06-27T00:56:41.944Z,988.4
2019-06-27T00:57:43.261Z,988.5
2019-06-27T00:58:44.556Z,988.5
2019-06-27T00:59:48.865Z,988.7
2019-06-27T01:00:50.318Z,988.6
2019-06-27T01:01:51.648Z,988.6
2019-06-27T01:02:53.011Z,988.6
2019-06-27T01:03:54.358Z,988.5
2019-06-27T01:04:56.039Z,988.5
2019-06-27T01:05:57.334Z,988.6
2019-06-27T01:06:58.743Z,988.5
2019-06-27T01:08:00.107Z,988.6
2019-06-27T01:09:01.575Z,988.7
2019-06-27T01:10:02.928Z,988.7
2019-06-27T01:11:04.262Z,988.8
2019-06-27T01:12:05.551Z,988.8
2019-06-27T01:13:07.799Z,988.8
2019-06-27T01:14:09.094Z,988.8
2019-06-27T01:15:10.733Z,988.7
2019-06-27T01:16:12.020Z,988.6
2019-06-27T01:17:13.336Z,988.6
2019-06-27T01:18:14.794Z,988.7
2019-06-27T01:19:16.057Z,988.7
2019-06-27T01:20:17.408Z,988.6
2019-06-27T01:21:18.940Z,988.8
2019-06-27T01:22:20.380Z,988.8
2019-06-27T01:23:21.690Z,988.7
2019-06-27T01:24:23.123Z,988.7
2019-06-27T01:25:24.423Z,988.5
2019-06-27T01:26:25.795Z,988.8
2019-06-27T01:27:31.066Z,988.8
2019-06-27T01:28:32.399Z,988.7
2019-06-27T01:29:33.716Z,988.7
2019-06-27T01:30:35.075Z,988.7
2019-06-27T01:31:36.438Z,988.7
2019-06-27T01:32:37.787Z,988.7
2019-06-27T01:33:39.170Z,988.8
2019-06-27T01:34:40.438Z,988.8
2019-06-27T01:35:42.445Z,988.7
2019-06-27T01:36:43.729Z,988.7
2019-06-27T01:37:45.057Z,988.8
2019-06-27T01:38:46.805Z,988.8
2019-06-27T01:39:50.353Z,988.7
2019-06-27T01:40:51.696Z,988.7
2019-06-27T01:41:53.072Z,988.8
2019-06-27T01:42:54.358Z,988.9
2019-06-27T01:43:55.774Z,988.8
2019-06-27T01:44:57.088Z,988.7
2019-06-27T01:45:58.469Z,988.8
2019-06-27T01:46:59.775Z,988.8
2019-06-27T01:48:01.061Z,988.6
2019-06-27T01:49:02.375Z,988.9
2019-06-27T01:50:03.676Z,988.8
2019-06-27T01:51:05.013Z,988.9
2019-06-27T01:52:06.339Z,988.6
2019-06-27T01:53:09.622Z,988.8
2019-06-27T01:54:10.904Z,988.9
2019-06-27T01:55:12.231Z,988.9
2019-06-27T01:56:13.569Z,988.9
2019-06-27T01:57:14.953Z,989
2019-06-27T01:58:16.259Z,989
2019-06-27T01:59:18.225Z,989.1
2019-06-27T02:00:19.628Z,989
2019-06-27T02:01:20.999Z,988.9
2019-06-27T02:02:22.355Z,988.9
2019-06-27T02:03:24.863Z,989.1
2019-06-27T02:04:26.297Z,989.1
2019-06-27T02:05:27.835Z,989.1
2019-06-27T02:06:30.215Z,989
2019-06-27T02:07:31.497Z,989.1
2019-06-27T02:08:32.901Z,989.1
2019-06-27T02:09:34.575Z,989
2019-06-27T02:10:35.974Z,989.1
2019-06-27T02:11:37.343Z,988.9
2019-06-27T02:12:38.663Z,989.1
2019-06-27T02:13:39.965Z,989.2
2019-06-27T02:14:41.252Z,989.1
2019-06-27T02:15:42.534Z,988.9
2019-06-27T02:16:43.928Z,989.1
2019-06-27T02:17:45.229Z,989.1
2019-06-27T02:18:46.503Z,989.1
2019-06-27T02:19:47.817Z,989
2019-06-27T02:20:54.695Z,989.1
2019-06-27T02:21:56.055Z,989.3
2019-06-27T02:22:57.343Z,989.3
2019-06-27T02:23:58.640Z,989.2
2019-06-27T02:24:59.955Z,989.2
2019-06-27T02:26:01.521Z,989.3
2019-06-27T02:27:02.913Z,989.2
2019-06-27T02:28:05.237Z,989.3
2019-06-27T02:29:06.546Z,989.2
2019-06-27T02:30:07.854Z,989.2
2019-06-27T02:31:09.177Z,989.1
2019-06-27T02:32:10.562Z,989.1
2019-06-27T02:33:11.874Z,989.3
2019-06-27T02:34:13.191Z,989.3
2019-06-27T02:35:14.538Z,989.4
2019-06-27T02:36:15.839Z,989.2
2019-06-27T02:37:17.251Z,988.9
2019-06-27T02:38:18.674Z,989.3
2019-06-27T02:39:21.995Z,989.4
2019-06-27T02:40:23.311Z,989.5
2019-06-27T02:41:24.579Z,989.5
2019-06-27T02:42:25.915Z,989.2
2019-06-27T02:43:27.329Z,989.3
2019-06-27T02:44:28.670Z,989.4
2019-06-27T02:45:29.969Z,989.6
2019-06-27T02:46:31.291Z,989.4
2019-06-27T02:47:32.651Z,989.4
2019-06-27T02:48:33.969Z,989.2
2019-06-27T02:49:35.287Z,989.4
2019-06-27T02:50:36.595Z,989.4
2019-06-27T02:51:37.901Z,989.5
2019-06-27T02:52:39.273Z,989.2
2019-06-27T02:53:40.555Z,989.3
2019-06-27T02:54:41.871Z,989.5
2019-06-27T02:55:43.173Z,989.7
2019-06-27T02:56:44.469Z,989.5
2019-06-27T02:57:45.851Z,989.2
2019-06-27T02:58:47.165Z,989.5
2019-06-27T02:59:48.504Z,989.8
2019-06-27T03:00:49.830Z,989.7
2019-06-27T03:01:51.203Z,989.5
2019-06-27T03:02:52.565Z,989.4
2019-06-27T03:03:53.881Z,989.3
2019-06-27T03:04:55.226Z,989.4
2019-06-27T03:05:56.582Z,989.6
2019-06-27T03:06:58.015Z,989.6
2019-06-27T03:07:59.447Z,989.6
2019-06-27T03:09:00.777Z,989.7
2019-06-27T03:10:02.127Z,989.6
2019-06-27T03:11:03.556Z,989.7
2019-06-27T03:12:04.881Z,989.7
2019-06-27T03:13:06.304Z,989.9
2019-06-27T03:14:07.672Z,989.8
2019-06-27T03:15:08.990Z,989.6
2019-06-27T03:16:10.611Z,989.7
2019-06-27T03:17:11.949Z,989.8
2019-06-27T03:18:13.757Z,989.6
2019-06-27T03:19:15.116Z,989.9
2019-06-27T03:20:16.477Z,989.8
2019-06-27T03:21:17.835Z,989.7
2019-06-27T03:22:19.159Z,989.6
2019-06-27T03:23:20.549Z,989.8
2019-06-27T03:24:21.930Z,989.9
2019-06-27T03:25:23.268Z,989.7
2019-06-27T03:26:24.558Z,989.8
2019-06-27T03:27:25.849Z,989.6
2019-06-27T03:28:44.922Z,989.7
2019-06-27T03:29:51.104Z,989.7
2019-06-27T03:30:53.321Z,989.5
2019-06-27T03:31:55.774Z,989.6
2019-06-27T03:32:57.107Z,989.6
2019-06-27T03:33:58.739Z,989.5
2019-06-27T03:35:00.065Z,989.8
2019-06-27T03:36:01.395Z,989.7
2019-06-27T03:37:02.714Z,989.7
2019-06-27T03:38:04.260Z,989.8
2019-06-27T03:39:05.584Z,989.6
2019-06-27T03:40:06.908Z,989.6
2019-06-27T03:41:08.301Z,989.6
2019-06-27T03:42:09.689Z,989.4
2019-06-27T03:43:11.059Z,989.4
2019-06-27T03:44:12.373Z,989.7
2019-06-27T03:45:16.803Z,989.7
2019-06-27T03:46:18.215Z,989.7
2019-06-27T03:47:19.473Z,989.6
2019-06-27T03:48:20.767Z,989.8
2019-06-27T03:49:22.129Z,989.9
2019-06-27T03:50:23.464Z,989.9
2019-06-27T03:51:24.785Z,990.1
2019-06-27T03:52:26.067Z,990.1
2019-06-27T03:53:27.381Z,989.8
2019-06-27T03:54:28.815Z,989.6
2019-06-27T03:55:30.138Z,989.7
2019-06-27T03:56:31.513Z,989.8
2019-06-27T03:57:32.847Z,990
2019-06-27T03:58:34.171Z,989.9
2019-06-27T03:59:35.529Z,990
2019-06-27T04:00:36.900Z,990
2019-06-27T04:01:38.846Z,990
2019-06-27T04:02:40.158Z,990
2019-06-27T04:03:43.830Z,990.1
2019-06-27T04:04:45.275Z,989.7
2019-06-27T04:05:46.591Z,989.9
2019-06-27T04:06:47.974Z,989.9
2019-06-27T04:07:49.383Z,990.1
2019-06-27T04:08:50.726Z,989.6
2019-06-27T04:09:52.108Z,989.8
2019-06-27T04:10:53.382Z,989.7
2019-06-27T04:11:54.686Z,989.8
2019-06-27T04:12:56.251Z,990.1
2019-06-27T04:13:57.660Z,990.2
2019-06-27T04:14:59.005Z,990
2019-06-27T04:16:00.348Z,990.2
2019-06-27T04:17:01.667Z,990.2
2019-06-27T04:18:03.026Z,990
2019-06-27T04:19:04.360Z,990
2019-06-27T04:20:05.770Z,990
2019-06-27T04:21:07.281Z,989.7
2019-06-27T04:22:08.567Z,989.7
2019-06-27T04:23:09.916Z,989.8
2019-06-27T04:24:11.224Z,990.1
2019-06-27T04:25:12.632Z,990.1
2019-06-27T04:26:13.955Z,990
2019-06-27T04:27:15.300Z,990.1
2019-06-27T04:28:16.709Z,989.9
2019-06-27T04:29:34.439Z,989.9
2019-06-27T04:30:36.179Z,990.1
2019-06-27T04:31:37.515Z,990.2
2019-06-27T04:32:38.873Z,990.3
2019-06-27T04:33:40.317Z,990.2
2019-06-27T04:34:41.737Z,990.4
2019-06-27T04:35:43.407Z,990.4
2019-06-27T04:36:44.786Z,990.5
2019-06-27T04:37:46.113Z,990.5
2019-06-27T04:38:47.526Z,990.2
2019-06-27T04:39:48.872Z,990.2
2019-06-27T04:40:50.305Z,990.4
2019-06-27T04:41:51.612Z,990.4
2019-06-27T04:42:54.360Z,990.4
2019-06-27T04:43:56.082Z,990.4
2019-06-27T04:44:57.466Z,990.3
2019-06-27T04:45:58.844Z,990.5
2019-06-27T04:47:02.135Z,990.5
2019-06-27T04:48:03.469Z,990.4
2019-06-27T04:49:04.788Z,990.5
2019-06-27T04:50:06.104Z,990.5
2019-06-27T04:51:07.486Z,990.4
2019-06-27T04:52:08.766Z,990.5
2019-06-27T04:53:10.166Z,990.5
2019-06-27T04:54:11.484Z,990.5
2019-06-27T04:55:13.085Z,990.3
2019-06-27T04:56:14.487Z,990.3
2019-06-27T04:57:15.875Z,990.5
2019-06-27T04:58:17.194Z,990.5
2019-06-27T04:59:18.553Z,990.4
2019-06-27T05:00:19.852Z,990.6
2019-06-27T05:01:21.189Z,990.7
2019-06-27T05:02:22.480Z,990.7
2019-06-27T05:03:23.758Z,990.7
2019-06-27T05:04:25.074Z,990.8
2019-06-27T05:05:26.382Z,990.5
2019-06-27T05:06:27.806Z,990.7
2019-06-27T05:07:29.119Z,990.7
2019-06-27T05:08:30.422Z,990.8
2019-06-27T05:09:31.758Z,990.4
2019-06-27T05:10:33.096Z,990.6
2019-06-27T05:11:34.554Z,990.9
2019-06-27T05:12:35.902Z,990.8
2019-06-27T05:13:37.236Z,990.8
2019-06-27T05:14:38.590Z,990.7
2019-06-27T05:15:39.923Z,990.7
2019-06-27T05:16:41.262Z,990.8
2019-06-27T05:17:42.580Z,990.9
2019-06-27T05:18:43.860Z,990.9
2019-06-27T05:19:45.272Z,990.9
2019-06-27T05:20:46.588Z,990.9
2019-06-27T05:21:48.384Z,990.9
2019-06-27T05:22:49.692Z,990.9
2019-06-27T05:23:51.000Z,990.9
2019-06-27T05:24:52.300Z,990.7
2019-06-27T05:25:53.620Z,990.8
2019-06-27T05:26:54.985Z,990.7
2019-06-27T05:27:56.322Z,990.9
2019-06-27T05:28:57.620Z,990.8
2019-06-27T05:30:10.646Z,990.9
2019-06-27T05:31:12.226Z,990.7
2019-06-27T05:32:13.591Z,990.7
2019-06-27T05:33:14.978Z,990.6
2019-06-27T05:34:16.329Z,990.6
2019-06-27T05:35:17.760Z,990.8
2019-06-27T05:36:19.090Z,990.8
2019-06-27T05:37:20.480Z,990.7
2019-06-27T05:38:21.831Z,990.7
2019-06-27T05:39:23.220Z,990.9
2019-06-27T05:40:24.536Z,990.8
2019-06-27T05:41:25.840Z,990.9
2019-06-27T05:42:27.200Z,991
2019-06-27T05:43:28.520Z,991
2019-06-27T05:44:29.892Z,991
2019-06-27T05:45:31.237Z,991
2019-06-27T05:46:32.596Z,991
2019-06-27T05:47:33.985Z,990.9
2019-06-27T05:48:35.350Z,990.9
2019-06-27T05:49:36.662Z,990.9
2019-06-27T05:50:38.028Z,990.9
2019-06-27T05:51:39.340Z,990.8
2019-06-27T05:52:40.781Z,990.9
2019-06-27T05:53:45.412Z,990.8
2019-06-27T05:54:47.047Z,990.7
2019-06-27T05:55:48.362Z,990.8
2019-06-27T05:56:49.659Z,990.8
2019-06-27T05:57:51.003Z,990.9
2019-06-27T05:58:52.890Z,990.9
2019-06-27T05:59:54.199Z,990.8
2019-06-27T06:00:55.536Z,990.8
2019-06-27T06:01:56.847Z,990.8
2019-06-27T06:02:58.192Z,990.8
2019-06-27T06:03:59.474Z,990.7
2019-06-27T06:05:00.816Z,990.7
2019-06-27T06:06:04.139Z,990.6
2019-06-27T06:07:05.565Z,990.5
2019-06-27T06:08:06.939Z,990.5
2019-06-27T06:09:08.347Z,990.5
2019-06-27T06:10:09.708Z,990.6
2019-06-27T06:11:12.559Z,990.6
2019-06-27T06:12:13.889Z,990.7
2019-06-27T06:13:15.219Z,990.7
2019-06-27T06:14:16.585Z,990.8
2019-06-27T06:15:17.934Z,990.5
2019-06-27T06:16:19.257Z,990.9
2019-06-27T06:17:20.577Z,990.8
2019-06-27T06:18:21.927Z,990.7
2019-06-27T06:19:23.235Z,990.6
2019-06-27T06:20:24.537Z,990.7
2019-06-27T06:21:25.884Z,990.7
2019-06-27T06:22:27.201Z,990.7
2019-06-27T06:23:28.558Z,990.7
2019-06-27T06:24:29.918Z,990.6
2019-06-27T06:25:31.263Z,990.7
2019-06-27T06:26:32.562Z,990.7
2019-06-27T06:27:33.872Z,990.5
2019-06-27T06:28:35.313Z,990.7
2019-06-27T06:29:36.622Z,990.8
2019-06-27T06:30:45.451Z,990.8
2019-06-27T06:31:50.812Z,990.8
2019-06-27T06:32:52.139Z,990.8
2019-06-27T06:33:53.661Z,990.9
2019-06-27T06:34:55.023Z,990.9
2019-06-27T06:35:56.428Z,990.9
2019-06-27T06:36:57.704Z,990.8
2019-06-27T06:37:59.117Z,991
2019-06-27T06:39:00.567Z,990.9
2019-06-27T06:40:02.071Z,990.9
2019-06-27T06:41:03.392Z,991
2019-06-27T06:42:04.695Z,991
2019-06-27T06:43:06.057Z,991
2019-06-27T06:44:07.423Z,991.1
2019-06-27T06:45:08.739Z,991
2019-06-27T06:46:10.098Z,990.9
2019-06-27T06:47:11.411Z,990.8
2019-06-27T06:48:12.719Z,990.6
2019-06-27T06:49:14.087Z,990.5
2019-06-27T06:50:15.413Z,990.7
2019-06-27T06:51:16.761Z,990.7
2019-06-27T06:52:18.162Z,990.6
2019-06-27T06:53:19.507Z,990.5
2019-06-27T06:54:20.880Z,990.7
2019-06-27T06:55:22.219Z,990.6
2019-06-27T06:56:23.549Z,990.8
2019-06-27T06:57:24.881Z,990.8
2019-06-27T06:58:26.262Z,990.7
2019-06-27T06:59:27.663Z,990.8
2019-06-27T07:00:29.002Z,990.8
2019-06-27T07:01:30.349Z,990.7
2019-06-27T07:02:31.705Z,990.9
2019-06-27T07:03:33.585Z,991
2019-06-27T07:04:34.921Z,990.9
2019-06-27T07:05:36.270Z,991
2019-06-27T07:06:37.687Z,990.8
2019-06-27T07:07:38.987Z,991
2019-06-27T07:08:40.325Z,991
2019-06-27T07:09:41.705Z,990.9
2019-06-27T07:10:43.038Z,991
2019-06-27T07:11:44.345Z,990.8
2019-06-27T07:12:45.685Z,991
2019-06-27T07:13:47.057Z,990.6
2019-06-27T07:14:48.426Z,990.9
2019-06-27T07:15:49.778Z,990.9
2019-06-27T07:16:51.125Z,991
2019-06-27T07:17:52.479Z,991
2019-06-27T07:18:53.777Z,990.9
2019-06-27T07:19:58.359Z,990.8
2019-06-27T07:20:59.642Z,990.9
2019-06-27T07:22:00.954Z,991
2019-06-27T07:23:02.691Z,990.9
2019-06-27T07:24:04.655Z,990.9
2019-06-27T07:25:06.031Z,990.8
2019-06-27T07:26:07.381Z,990.8
2019-06-27T07:27:08.785Z,990.8
2019-06-27T07:28:10.202Z,990.7
2019-06-27T07:29:11.540Z,990.7
2019-06-27T07:30:13.403Z,990.7
2019-06-27T07:31:19.445Z,991
2019-06-27T07:32:21.428Z,990.9
2019-06-27T07:33:22.811Z,990.9
2019-06-27T07:34:24.106Z,991
2019-06-27T07:35:25.444Z,990.9
2019-06-27T07:36:27.238Z,991
2019-06-27T07:37:28.602Z,990.9
2019-06-27T07:38:29.929Z,991
2019-06-27T07:39:31.242Z,990.8
2019-06-27T07:40:32.648Z,990.9
2019-06-27T07:41:33.978Z,991
2019-06-27T07:42:35.311Z,991.1
2019-06-27T07:43:36.666Z,991
2019-06-27T07:44:39.179Z,991
2019-06-27T07:45:40.533Z,991.1
2019-06-27T07:46:41.858Z,991.1
2019-06-27T07:47:43.278Z,991
2019-06-27T07:48:44.625Z,990.9
2019-06-27T07:49:46.001Z,990.9
2019-06-27T07:50:47.331Z,991
2019-06-27T07:51:48.653Z,991
2019-06-27T07:52:50.499Z,991.1
2019-06-27T07:53:52.743Z,991.1
2019-06-27T07:54:54.072Z,991.2
2019-06-27T07:55:55.563Z,991.1
2019-06-27T07:56:56.946Z,991
2019-06-27T07:57:58.669Z,991
2019-06-27T07:59:02.063Z,990.8
2019-06-27T08:00:03.402Z,991
2019-06-27T08:01:04.879Z,990.9
2019-06-27T08:02:06.864Z,990.7
2019-06-27T08:03:08.189Z,990.7
2019-06-27T08:04:09.509Z,990.9
2019-06-27T08:05:10.866Z,990.9
2019-06-27T08:06:12.259Z,990.7
2019-06-27T08:07:13.561Z,991
2019-06-27T08:08:14.904Z,990.8
2019-06-27T08:09:16.263Z,990.8
2019-06-27T08:10:17.581Z,990.9
2019-06-27T08:11:19.036Z,990.9
2019-06-27T08:12:20.427Z,990.9
2019-06-27T08:13:21.797Z,991
2019-06-27T08:14:23.443Z,991
2019-06-27T08:15:24.791Z,991
2019-06-27T08:16:26.135Z,990.9
2019-06-27T08:17:27.463Z,990.8
2019-06-27T08:18:29.305Z,990.7
2019-06-27T08:19:31.147Z,990.8
2019-06-27T08:20:32.505Z,990.7
2019-06-27T08:21:33.892Z,990.9
2019-06-27T08:22:35.191Z,990.7
2019-06-27T08:23:42.842Z,990.6
2019-06-27T08:24:44.247Z,990.5
2019-06-27T08:25:46.212Z,990.6
2019-06-27T08:26:47.649Z,990.7
2019-06-27T08:27:49.257Z,990.9
2019-06-27T08:28:50.674Z,991
2019-06-27T08:29:52.117Z,991.1
2019-06-27T08:30:53.455Z,990.9
2019-06-27T08:31:54.853Z,990.8
2019-06-27T08:32:56.217Z,990.7
2019-06-27T08:33:57.691Z,990.9
2019-06-27T08:34:59.012Z,990.8
2019-06-27T08:36:00.432Z,990.8
2019-06-27T08:37:01.798Z,990.9
2019-06-27T08:38:03.215Z,990.9
2019-06-27T08:39:04.622Z,991
2019-06-27T08:40:05.979Z,991.1
2019-06-27T08:41:07.318Z,990.8
2019-06-27T08:42:08.683Z,990.8
2019-06-27T08:43:10.014Z,991
2019-06-27T08:44:11.383Z,990.9
2019-06-27T08:45:12.710Z,990.8
2019-06-27T08:46:14.099Z,990.7
2019-06-27T08:47:15.459Z,990.7
2019-06-27T08:48:16.775Z,990.6
2019-06-27T08:49:18.107Z,990.5
2019-06-27T08:50:19.484Z,990.7
2019-06-27T08:51:20.884Z,990.5
2019-06-27T08:52:22.273Z,990.5
2019-06-27T08:53:23.778Z,990.6
2019-06-27T08:54:25.164Z,990.6
2019-06-27T08:55:26.668Z,990.8
2019-06-27T08:56:30.631Z,990.8
2019-06-27T08:57:31.994Z,990.7
2019-06-27T08:58:33.299Z,990.4
2019-06-27T08:59:34.604Z,990.4
2019-06-27T09:00:35.935Z,990.8
2019-06-27T09:01:37.248Z,990.8
2019-06-27T09:02:38.574Z,990.8
2019-06-27T09:03:39.857Z,990.6
2019-06-27T09:04:41.186Z,990.5
2019-06-27T09:05:42.482Z,990.4
2019-06-27T09:06:43.823Z,990.4
2019-06-27T09:07:45.228Z,990.5
2019-06-27T09:08:46.551Z,990.6
2019-06-27T09:09:47.886Z,990.3
2019-06-27T09:10:49.191Z,990.4
2019-06-27T09:11:50.913Z,990.2
2019-06-27T09:12:52.307Z,990.3
2019-06-27T09:13:53.696Z,990.3
2019-06-27T09:14:55.017Z,990.2
2019-06-27T09:15:56.412Z,990.4
2019-06-27T09:16:57.693Z,990.6
2019-06-27T09:17:59.133Z,990.6
2019-06-27T09:19:00.444Z,990.3
2019-06-27T09:20:01.749Z,990.4
2019-06-27T09:21:03.057Z,990.5
2019-06-27T09:22:04.415Z,990.5
2019-06-27T09:23:05.752Z,990.4
2019-06-27T09:24:07.132Z,990.4
2019-06-27T09:25:08.496Z,990.4
2019-06-27T09:26:09.867Z,990.4
2019-06-27T09:27:11.291Z,990.4
2019-06-27T09:28:12.723Z,990.4
2019-06-27T09:29:14.029Z,990.4
2019-06-27T09:30:15.378Z,990.5
2019-06-27T09:31:17.171Z,990.4
2019-06-27T09:32:26.804Z,990.4
2019-06-27T09:33:28.159Z,990.5
2019-06-27T09:34:29.501Z,990.5
2019-06-27T09:35:30.815Z,990.4
2019-06-27T09:36:34.120Z,990.4
2019-06-27T09:37:35.457Z,990.4
2019-06-27T09:38:36.790Z,990.4
2019-06-27T09:39:38.097Z,990.3
2019-06-27T09:40:39.405Z,990.3
2019-06-27T09:41:40.729Z,990.3
2019-06-27T09:42:42.074Z,990.3
2019-06-27T09:43:43.464Z,990.3
2019-06-27T09:44:44.811Z,990.4
2019-06-27T09:45:46.182Z,990.3
2019-06-27T09:46:47.473Z,990.3
2019-06-27T09:47:48.776Z,990.3
2019-06-27T09:48:50.226Z,990.2
2019-06-27T09:49:51.616Z,990.3
2019-06-27T09:50:53.229Z,990.2
2019-06-27T09:51:54.523Z,990.3
2019-06-27T09:52:55.940Z,990.2
2019-06-27T09:53:57.763Z,990.2
2019-06-27T09:54:59.074Z,990.2
2019-06-27T09:56:00.430Z,989.9
2019-06-27T09:57:01.775Z,990.1
2019-06-27T09:58:03.310Z,990.1
2019-06-27T09:59:04.681Z,990.1
2019-06-27T10:00:06.143Z,990.1
2019-06-27T10:01:07.465Z,990.1
2019-06-27T10:02:08.772Z,990
2019-06-27T10:03:10.052Z,990.1
2019-06-27T10:04:11.440Z,990
2019-06-27T10:05:12.744Z,990
2019-06-27T10:06:14.050Z,990.1
2019-06-27T10:07:15.365Z,990
2019-06-27T10:08:16.711Z,990
2019-06-27T10:09:18.096Z,989.9
2019-06-27T10:10:19.440Z,989.9
2019-06-27T10:11:20.752Z,989.8
2019-06-27T10:12:22.071Z,989.8
2019-06-27T10:13:23.504Z,989.6
2019-06-27T10:14:24.867Z,989.7
2019-06-27T10:15:26.203Z,989.8
2019-06-27T10:16:27.511Z,989.8
2019-06-27T10:17:28.791Z,989.8
2019-06-27T10:18:30.154Z,989.9
2019-06-27T10:19:31.606Z,989.8
2019-06-27T10:20:32.985Z,989.8
2019-06-27T10:21:34.296Z,989.8
2019-06-27T10:22:35.678Z,989.8
2019-06-27T10:23:36.989Z,989.7
2019-06-27T10:24:38.352Z,989.7
2019-06-27T10:25:39.781Z,989.7
2019-06-27T10:26:41.091Z,989.7
2019-06-27T10:27:42.442Z,989.7
2019-06-27T10:28:43.790Z,989.7
2019-06-27T10:29:45.157Z,989.7
2019-06-27T10:30:49.838Z,989.7
2019-06-27T10:31:51.192Z,989.6
2019-06-27T10:33:00.482Z,989.6
2019-06-27T10:34:02.030Z,989.7
2019-06-27T10:35:03.366Z,989.6
2019-06-27T10:36:04.723Z,989.6
2019-06-27T10:37:06.188Z,989.6
2019-06-27T10:38:07.515Z,989.5
2019-06-27T10:39:08.840Z,989.5
2019-06-27T10:40:10.212Z,989.5
2019-06-27T10:41:11.792Z,989.5
2019-06-27T10:42:14.292Z,989.6
2019-06-27T10:43:15.616Z,989.6
2019-06-27T10:44:17.016Z,989.6
2019-06-27T10:45:18.392Z,989.5
2019-06-27T10:46:19.692Z,989.5
2019-06-27T10:47:21.026Z,989.6
2019-06-27T10:48:22.342Z,989.5
2019-06-27T10:49:23.632Z,989.6
2019-06-27T10:50:24.960Z,989.6
2019-06-27T10:51:26.333Z,989.7
2019-06-27T10:52:27.749Z,989.6
2019-06-27T10:53:29.040Z,989.6
2019-06-27T10:54:30.337Z,989.5
2019-06-27T10:55:31.686Z,989.6
2019-06-27T10:56:39.843Z,989.6
2019-06-27T10:57:41.454Z,989.6
2019-06-27T10:58:42.812Z,989.6
2019-06-27T10:59:44.154Z,989.6
2019-06-27T11:00:45.753Z,989.6
2019-06-27T11:01:47.140Z,989.6
2019-06-27T11:02:48.422Z,989.6
2019-06-27T11:03:49.739Z,989.6
2019-06-27T11:04:51.085Z,989.5
2019-06-27T11:05:52.408Z,989.5
2019-06-27T11:06:53.756Z,989.5
2019-06-27T11:07:55.065Z,989.6
2019-06-27T11:08:56.380Z,989.6
2019-06-27T11:09:59.434Z,989.5
2019-06-27T11:11:00.812Z,989.5
2019-06-27T11:12:02.783Z,989.5
2019-06-27T11:13:04.252Z,989.4
2019-06-27T11:14:05.584Z,989.5
2019-06-27T11:15:07.325Z,989.4
2019-06-27T11:16:08.753Z,989.4
2019-06-27T11:17:10.111Z,989.4
2019-06-27T11:18:13.697Z,989.5
2019-06-27T11:19:15.358Z,989.5
2019-06-27T11:20:16.696Z,989.4
2019-06-27T11:21:18.050Z,989.5
2019-06-27T11:22:19.376Z,988.8
2019-06-27T11:23:20.704Z,989.4
2019-06-27T11:24:21.990Z,989.5
2019-06-27T11:25:23.358Z,989.5
2019-06-27T11:26:24.734Z,989.4
2019-06-27T11:27:28.192Z,989.4
2019-06-27T11:28:29.508Z,989.3
2019-06-27T11:29:30.854Z,989.4
2019-06-27T11:30:32.482Z,989.3
2019-06-27T11:31:33.919Z,989.4
2019-06-27T11:32:35.210Z,989.4
2019-06-27T11:33:36.576Z,989.4
2019-06-27T11:34:37.896Z,989.3
2019-06-27T11:35:39.193Z,989.3
2019-06-27T11:36:40.534Z,989.1
2019-06-27T11:37:41.847Z,989.3
2019-06-27T11:38:43.185Z,989.3
2019-06-27T11:39:44.504Z,989.3
2019-06-27T11:40:45.803Z,989.2
2019-06-27T11:41:47.332Z,989.2
2019-06-27T11:42:48.632Z,989.3
2019-06-27T11:43:49.974Z,989.2
2019-06-27T11:44:51.356Z,989.3
2019-06-27T11:45:52.650Z,989.3
2019-06-27T11:46:54.127Z,989.3
2019-06-27T11:47:55.472Z,989.3
2019-06-27T11:48:56.805Z,989.3
2019-06-27T11:49:58.106Z,989.3
2019-06-27T11:50:59.422Z,989.3
2019-06-27T11:52:00.756Z,989.3
2019-06-27T11:53:02.194Z,989.2
2019-06-27T11:54:03.661Z,989.2
2019-06-27T11:55:04.976Z,989.3
2019-06-27T11:56:06.314Z,989.3
2019-06-27T11:57:07.621Z,989.2
2019-06-27T11:58:08.934Z,989.3
2019-06-27T11:59:10.270Z,989.3
2019-06-27T12:00:11.640Z,989.2
2019-06-27T12:01:13.088Z,989.2
2019-06-27T12:02:14.423Z,989.2
2019-06-27T12:03:15.763Z,989.2
2019-06-27T12:04:17.202Z,989.1
2019-06-27T12:05:18.579Z,989.2
2019-06-27T12:06:19.922Z,989.3
2019-06-27T12:07:21.280Z,989.3
2019-06-27T12:08:22.598Z,989.2
2019-06-27T12:09:23.934Z,989.3
2019-06-27T12:10:25.230Z,989.2
2019-06-27T12:11:26.554Z,989.2
2019-06-27T12:12:27.985Z,989.2
2019-06-27T12:13:29.335Z,989.2
2019-06-27T12:14:30.688Z,989.2
2019-06-27T12:15:32.000Z,989.3
2019-06-27T12:16:33.323Z,989.3
2019-06-27T12:17:34.710Z,989.3
2019-06-27T12:18:36.090Z,989.3
2019-06-27T12:19:37.420Z,989.3
2019-06-27T12:20:38.738Z,989.2
2019-06-27T12:21:40.045Z,989.3
2019-06-27T12:22:41.412Z,989.2
2019-06-27T12:23:42.812Z,989.2
2019-06-27T12:24:44.170Z,989.3
2019-06-27T12:25:45.508Z,989.3
2019-06-27T12:26:46.852Z,989.2
2019-06-27T12:27:48.207Z,989.2
2019-06-27T12:28:49.497Z,989.2
2019-06-27T12:29:50.906Z,989.2
2019-06-27T12:30:52.249Z,989.2
2019-06-27T12:31:53.545Z,989.2
2019-06-27T12:32:56.966Z,989.2
2019-06-27T12:34:07.912Z,989.3
2019-06-27T12:35:09.340Z,989.1
2019-06-27T12:36:10.724Z,989.2
2019-06-27T12:37:12.062Z,989.2
2019-06-27T12:38:15.260Z,989.2
2019-06-27T12:39:16.636Z,989.2
2019-06-27T12:40:17.963Z,989.3
2019-06-27T12:41:19.317Z,989.2
2019-06-27T12:42:33.145Z,989.2
2019-06-27T12:43:34.482Z,989.2
2019-06-27T12:44:35.895Z,989.2
2019-06-27T12:45:37.242Z,989.2
2019-06-27T12:46:38.543Z,989.2
2019-06-27T12:47:39.922Z,989.2
2019-06-27T12:48:41.339Z,989.3
2019-06-27T12:50:03.052Z,989
2019-06-27T12:51:06.836Z,989.2
2019-06-27T12:52:08.138Z,989.2
2019-06-27T12:53:09.488Z,989.2
2019-06-27T12:54:10.869Z,989.2
2019-06-27T12:55:12.236Z,989.2
2019-06-27T12:56:13.572Z,989.2
2019-06-27T12:57:15.288Z,989.2
2019-06-27T12:58:16.605Z,989.2
2019-06-27T12:59:18.074Z,989.1
2019-06-27T13:00:19.401Z,989.1
2019-06-27T13:01:20.755Z,989
2019-06-27T13:02:22.076Z,989
2019-06-27T13:03:23.422Z,989
2019-06-27T13:04:25.049Z,989.1
2019-06-27T13:05:26.363Z,989.1
2019-06-27T13:06:27.670Z,989.1
2019-06-27T13:07:28.979Z,989.1
2019-06-27T13:08:30.324Z,989.1
2019-06-27T13:09:31.692Z,989
2019-06-27T13:10:36.683Z,989.1
2019-06-27T13:11:37.997Z,989
2019-06-27T13:12:39.337Z,989
2019-06-27T13:13:42.833Z,989
2019-06-27T13:14:44.296Z,989
2019-06-27T13:15:45.634Z,989
2019-06-27T13:16:47.081Z,989
2019-06-27T13:17:48.407Z,988.9
2019-06-27T13:18:49.704Z,988.9